sensor_id;sensor_type;location;lat;lon;timestamp;temperature;humidity
31975;DHT22;18500;43.618;1.474;2023-07-09T07:35:50;23.70;1.00
31975;DHT22;18500;43.618;1.474;2023-07-09T07:38:15;23.80;1.00
31975;DHT22;18500;43.618;1.474;2023-07-09T07:40:44;23.90;1.00
31975;DHT22;18500;43.618;1.474;2023-07-09T07:43:10;23.80;1.00
31975;DHT22;18500;43.618;1.474;2023-07-09T07:45:35;23.90;1.00
31975;DHT22;18500;43.618;1.474;2023-07-09T07:48:01;23.90;1.00
31975;DHT22;18500;43.618;1.474;2023-07-09T07:50:26;24.00;1.00
31975;DHT22;18500;43.618;1.474;2023-07-09T07:52:52;24.10;1.00
31975;DHT22;18500;43.618;1.474;2023-07-09T07:55:17;24.10;1.00
31975;DHT22;18500;43.618;1.474;2023-07-09T07:57:43;24.10;1.00
31975;DHT22;18500;43.618;1.474;2023-07-09T08:00:09;24.00;1.00
31975;DHT22;18500;43.618;1.474;2023-07-09T08:02:35;24.10;1.00
31975;DHT22;18500;43.618;1.474;2023-07-09T08:05:00;24.20;1.00
31975;DHT22;18500;43.618;1.474;2023-07-09T08:07:26;24.10;1.00
31975;DHT22;18500;43.618;1.474;2023-07-09T08:09:52;24.20;1.00
31975;DHT22;18500;43.618;1.474;2023-07-09T08:12:17;24.30;1.00
31975;DHT22;18500;43.618;1.474;2023-07-09T08:14:44;24.40;1.00
31975;DHT22;18500;43.618;1.474;2023-07-09T08:17:10;24.40;1.00
31975;DHT22;18500;43.618;1.474;2023-07-09T08:19:45;24.40;1.00
31975;DHT22;18500;43.618;1.474;2023-07-09T08:22:12;24.50;1.00
31975;DHT22;18500;43.618;1.474;2023-07-09T08:24:37;24.60;1.00
31975;DHT22;18500;43.618;1.474;2023-07-09T08:27:03;24.50;1.00
31975;DHT22;18500;43.618;1.474;2023-07-09T08:29:28;24.70;1.00
31975;DHT22;18500;43.618;1.474;2023-07-09T08:31:54;24.60;1.00
31975;DHT22;18500;43.618;1.474;2023-07-09T08:34:20;24.80;1.00
31975;DHT22;18500;43.618;1.474;2023-07-09T08:36:45;24.80;1.00
31975;DHT22;18500;43.618;1.474;2023-07-09T08:39:11;24.70;1.00
31975;DHT22;18500;43.618;1.474;2023-07-09T08:49:17;24.70;1.00
31975;DHT22;18500;43.618;1.474;2023-07-09T08:51:44;24.90;1.00
31975;DHT22;18500;43.618;1.474;2023-07-09T08:54:13;25.10;1.00
31975;DHT22;18500;43.618;1.474;2023-07-09T08:56:40;25.10;1.00
31975;DHT22;18500;43.618;1.474;2023-07-09T08:59:07;24.90;1.00
31975;DHT22;18500;43.618;1.474;2023-07-09T09:01:34;24.90;1.00
31975;DHT22;18500;43.618;1.474;2023-07-09T09:04:05;25.00;1.00
31975;DHT22;18500;43.618;1.474;2023-07-09T09:06:31;25.20;1.00
31975;DHT22;18500;43.618;1.474;2023-07-09T09:14:26;25.30;1.00
31975;DHT22;18500;43.618;1.474;2023-07-09T09:16:53;25.30;1.00
31975;DHT22;18500;43.618;1.474;2023-07-09T09:19:23;25.30;1.00
31975;DHT22;18500;43.618;1.474;2023-07-09T09:21:54;25.40;1.00
31975;DHT22;18500;43.618;1.474;2023-07-09T09:24:31;25.40;1.00
31975;DHT22;18500;43.618;1.474;2023-07-09T09:26:59;25.60;1.00
31975;DHT22;18500;43.618;1.474;2023-07-09T09:29:25;25.70;1.00
31975;DHT22;18500;43.618;1.474;2023-07-09T09:31:55;25.70;1.00
31975;DHT22;18500;43.618;1.474;2023-07-09T09:34:23;25.70;1.00
31975;DHT22;18500;43.618;1.474;2023-07-09T09:36:49;25.60;1.00
31975;DHT22;18500;43.618;1.474;2023-07-09T09:39:16;25.40;1.00
31975;DHT22;18500;43.618;1.474;2023-07-09T09:41:41;25.40;1.00
31975;DHT22;18500;43.618;1.474;2023-07-09T09:44:17;25.60;1.00
31975;DHT22;18500;43.618;1.474;2023-07-09T09:46:43;25.60;1.00
31975;DHT22;18500;43.618;1.474;2023-07-09T09:49:08;25.40;1.00
31975;DHT22;18500;43.618;1.474;2023-07-09T09:51:35;25.70;1.00
31975;DHT22;18500;43.618;1.474;2023-07-09T09:54:01;25.80;1.00
31975;DHT22;18500;43.618;1.474;2023-07-09T09:56:34;26.00;1.00
31975;DHT22;18500;43.618;1.474;2023-07-09T09:58:59;26.20;1.00
31975;DHT22;18500;43.618;1.474;2023-07-09T10:01:29;26.00;1.00
31975;DHT22;18500;43.618;1.474;2023-07-09T10:03:55;26.10;1.00
31975;DHT22;18500;43.618;1.474;2023-07-09T10:06:22;26.20;1.00
31975;DHT22;18500;43.618;1.474;2023-07-09T10:09:14;26.20;1.00
31975;DHT22;18500;43.618;1.474;2023-07-09T10:11:44;26.20;1.00
31975;DHT22;18500;43.618;1.474;2023-07-09T10:14:16;26.30;1.00
31975;DHT22;18500;43.618;1.474;2023-07-09T10:16:45;26.60;1.00
31975;DHT22;18500;43.618;1.474;2023-07-09T10:19:15;26.30;1.00
31975;DHT22;18500;43.618;1.474;2023-07-09T10:21:46;26.00;1.00
31975;DHT22;18500;43.618;1.474;2023-07-09T10:26:48;26.10;1.00
31975;DHT22;18500;43.618;1.474;2023-07-09T10:31:55;26.40;1.00
31975;DHT22;18500;43.618;1.474;2023-07-09T10:34:36;26.00;1.00
31975;DHT22;18500;43.618;1.474;2023-07-09T10:37:08;26.20;1.00
31975;DHT22;18500;43.618;1.474;2023-07-09T10:39:41;26.70;1.00
31975;DHT22;18500;43.618;1.474;2023-07-09T10:42:52;26.80;1.00
31975;DHT22;18500;43.618;1.474;2023-07-09T10:44:59;26.80;1.00
31975;DHT22;18500;43.618;1.474;2023-07-09T10:48:00;27.00;1.00
31975;DHT22;18500;43.618;1.474;2023-07-09T10:50:24;27.00;1.00
31975;DHT22;18500;43.618;1.474;2023-07-09T10:52:53;26.70;1.00
31975;DHT22;18500;43.618;1.474;2023-07-09T10:57:51;26.90;1.00
31975;DHT22;18500;43.618;1.474;2023-07-09T11:00:19;26.70;1.00
31975;DHT22;18500;43.618;1.474;2023-07-09T11:02:46;26.90;1.00
31975;DHT22;18500;43.618;1.474;2023-07-09T11:05:13;26.20;1.00
31975;DHT22;18500;43.618;1.474;2023-07-09T11:07:43;26.30;1.00
31975;DHT22;18500;43.618;1.474;2023-07-09T11:10:56;26.70;1.00
31975;DHT22;18500;43.618;1.474;2023-07-09T11:13:05;27.10;1.00
31975;DHT22;18500;43.618;1.474;2023-07-09T11:15:36;27.10;1.00
31975;DHT22;18500;43.618;1.474;2023-07-09T11:18:06;26.60;1.00
31975;DHT22;18500;43.618;1.474;2023-07-09T11:20:33;26.70;1.00
31975;DHT22;18500;43.618;1.474;2023-07-09T11:23:15;26.90;1.00
31975;DHT22;18500;43.618;1.474;2023-07-09T11:25:46;27.10;1.00
31975;DHT22;18500;43.618;1.474;2023-07-09T11:28:12;26.90;1.00
31975;DHT22;18500;43.618;1.474;2023-07-09T11:33:19;27.40;1.00
31975;DHT22;18500;43.618;1.474;2023-07-09T11:35:46;27.70;1.00
31975;DHT22;18500;43.618;1.474;2023-07-09T11:38:20;27.30;1.00
31975;DHT22;18500;43.618;1.474;2023-07-09T11:40:46;27.40;1.00
31975;DHT22;18500;43.618;1.474;2023-07-09T11:43:25;27.70;1.00
31975;DHT22;18500;43.618;1.474;2023-07-09T11:45:51;27.80;1.00
31975;DHT22;18500;43.618;1.474;2023-07-09T11:50:44;27.70;1.00
31975;DHT22;18500;43.618;1.474;2023-07-09T11:55:54;28.10;1.00
31975;DHT22;18500;43.618;1.474;2023-07-09T11:58:20;28.10;1.00
31975;DHT22;18500;43.618;1.474;2023-07-09T12:00:46;28.00;1.00
31975;DHT22;18500;43.618;1.474;2023-07-09T12:03:21;27.80;1.00
31975;DHT22;18500;43.618;1.474;2023-07-09T12:05:49;28.00;1.00
31975;DHT22;18500;43.618;1.474;2023-07-09T12:08:15;28.10;1.00
31975;DHT22;18500;43.618;1.474;2023-07-09T12:10:40;28.40;1.00
31975;DHT22;18500;43.618;1.474;2023-07-09T12:13:08;28.90;1.00
31975;DHT22;18500;43.618;1.474;2023-07-09T12:15:35;29.30;1.00
31975;DHT22;18500;43.618;1.474;2023-07-09T12:18:02;29.30;1.00
31975;DHT22;18500;43.618;1.474;2023-07-09T12:20:30;29.50;1.00
31975;DHT22;18500;43.618;1.474;2023-07-09T12:22:56;29.50;1.00
31975;DHT22;18500;43.618;1.474;2023-07-09T12:25:26;29.10;1.00
31975;DHT22;18500;43.618;1.474;2023-07-09T12:27:53;28.60;1.00
31975;DHT22;18500;43.618;1.474;2023-07-09T12:30:19;28.70;1.00
31975;DHT22;18500;43.618;1.474;2023-07-09T12:32:45;29.30;1.00
31975;DHT22;18500;43.618;1.474;2023-07-09T12:35:14;29.20;1.00
31975;DHT22;18500;43.618;1.474;2023-07-09T12:37:41;29.60;1.00
31975;DHT22;18500;43.618;1.474;2023-07-09T12:40:14;29.90;1.00
31975;DHT22;18500;43.618;1.474;2023-07-09T12:42:42;32.00;1.00
31975;DHT22;18500;43.618;1.474;2023-07-09T12:45:13;35.00;1.00
31975;DHT22;18500;43.618;1.474;2023-07-09T12:47:39;36.10;1.00
31975;DHT22;18500;43.618;1.474;2023-07-09T12:50:18;39.80;1.00
31975;DHT22;18500;43.618;1.474;2023-07-09T12:52:45;39.20;99.90
31975;DHT22;18500;43.618;1.474;2023-07-09T12:55:21;37.70;99.90
31975;DHT22;18500;43.618;1.474;2023-07-09T12:57:46;34.40;1.00
31975;DHT22;18500;43.618;1.474;2023-07-09T13:00:16;35.80;1.00
31975;DHT22;18500;43.618;1.474;2023-07-09T13:02:41;37.70;99.90
31975;DHT22;18500;43.618;1.474;2023-07-09T13:05:16;39.20;99.90
31975;DHT22;18500;43.618;1.474;2023-07-09T13:07:42;40.90;99.90
31975;DHT22;18500;43.618;1.474;2023-07-09T13:10:18;39.20;99.90
31975;DHT22;18500;43.618;1.474;2023-07-09T13:12:48;36.90;99.90
31975;DHT22;18500;43.618;1.474;2023-07-09T13:15:27;35.70;99.90
31975;DHT22;18500;43.618;1.474;2023-07-09T13:18:01;39.90;99.90
31975;DHT22;18500;43.618;1.474;2023-07-09T13:20:28;42.20;99.90
31975;DHT22;18500;43.618;1.474;2023-07-09T13:22:54;43.50;99.90
31975;DHT22;18500;43.618;1.474;2023-07-09T13:25:19;40.00;99.90
31975;DHT22;18500;43.618;1.474;2023-07-09T13:27:45;39.20;99.90
31975;DHT22;18500;43.618;1.474;2023-07-09T13:30:11;36.60;99.90
31975;DHT22;18500;43.618;1.474;2023-07-09T13:32:36;40.10;99.90
31975;DHT22;18500;43.618;1.474;2023-07-09T13:35:02;42.50;99.90
31975;DHT22;18500;43.618;1.474;2023-07-09T13:37:29;41.70;99.90
31975;DHT22;18500;43.618;1.474;2023-07-09T13:39:55;41.90;99.90
31975;DHT22;18500;43.618;1.474;2023-07-09T13:42:20;42.40;99.90
31975;DHT22;18500;43.618;1.474;2023-07-09T13:44:46;41.90;99.90
31975;DHT22;18500;43.618;1.474;2023-07-09T13:47:12;43.40;99.90
31975;DHT22;18500;43.618;1.474;2023-07-09T13:49:41;42.60;99.90
31975;DHT22;18500;43.618;1.474;2023-07-09T13:52:08;38.90;99.90
31975;DHT22;18500;43.618;1.474;2023-07-09T13:54:38;36.00;99.90
31975;DHT22;18500;43.618;1.474;2023-07-09T13:57:07;35.20;99.90
31975;DHT22;18500;43.618;1.474;2023-07-09T13:59:36;34.30;99.90
31975;DHT22;18500;43.618;1.474;2023-07-09T14:02:01;33.70;99.90
31975;DHT22;18500;43.618;1.474;2023-07-09T14:04:27;34.70;99.90
31975;DHT22;18500;43.618;1.474;2023-07-09T14:06:53;38.10;99.90
31975;DHT22;18500;43.618;1.474;2023-07-09T14:09:19;35.60;99.90
31975;DHT22;18500;43.618;1.474;2023-07-09T14:11:46;34.30;99.90
31975;DHT22;18500;43.618;1.474;2023-07-09T14:14:22;33.20;99.90
31975;DHT22;18500;43.618;1.474;2023-07-09T14:16:48;33.00;99.90
31975;DHT22;18500;43.618;1.474;2023-07-09T14:19:16;36.10;99.90
31975;DHT22;18500;43.618;1.474;2023-07-09T14:21:42;39.10;99.90
31975;DHT22;18500;43.618;1.474;2023-07-09T14:24:24;39.20;99.90
31975;DHT22;18500;43.618;1.474;2023-07-09T14:26:51;40.00;99.90
31975;DHT22;18500;43.618;1.474;2023-07-09T14:29:17;36.40;99.90
31975;DHT22;18500;43.618;1.474;2023-07-09T14:31:44;35.40;99.90
31975;DHT22;18500;43.618;1.474;2023-07-09T14:34:28;35.10;99.90
31975;DHT22;18500;43.618;1.474;2023-07-09T14:36:55;34.40;99.90
31975;DHT22;18500;43.618;1.474;2023-07-09T14:39:21;35.20;99.90
31975;DHT22;18500;43.618;1.474;2023-07-09T14:41:47;35.20;99.90
31975;DHT22;18500;43.618;1.474;2023-07-09T14:44:23;34.50;99.90
31975;DHT22;18500;43.618;1.474;2023-07-09T14:46:49;33.60;99.90
31975;DHT22;18500;43.618;1.474;2023-07-09T14:49:16;32.50;99.90
31975;DHT22;18500;43.618;1.474;2023-07-09T14:51:41;32.60;99.90
31975;DHT22;18500;43.618;1.474;2023-07-09T14:54:20;33.20;99.90
31975;DHT22;18500;43.618;1.474;2023-07-09T14:56:46;33.70;99.90
31975;DHT22;18500;43.618;1.474;2023-07-09T14:59:12;33.60;99.90
31975;DHT22;18500;43.618;1.474;2023-07-09T15:01:37;32.60;99.90
31975;DHT22;18500;43.618;1.474;2023-07-09T15:06:50;32.80;99.90
31975;DHT22;18500;43.618;1.474;2023-07-09T15:09:17;32.90;99.90
31975;DHT22;18500;43.618;1.474;2023-07-09T15:11:43;32.80;99.90
31975;DHT22;18500;43.618;1.474;2023-07-09T15:14:10;32.70;99.90
31975;DHT22;18500;43.618;1.474;2023-07-09T15:16:36;32.50;99.90
31975;DHT22;18500;43.618;1.474;2023-07-09T15:19:03;32.20;99.90
31975;DHT22;18500;43.618;1.474;2023-07-09T15:21:29;32.30;99.90
31975;DHT22;18500;43.618;1.474;2023-07-09T15:23:55;32.80;99.90
31975;DHT22;18500;43.618;1.474;2023-07-09T15:26:21;32.50;99.90
31975;DHT22;18500;43.618;1.474;2023-07-09T15:28:46;31.90;99.90
31975;DHT22;18500;43.618;1.474;2023-07-09T15:31:15;31.80;99.90
31975;DHT22;18500;43.618;1.474;2023-07-09T15:33:41;31.10;99.90
31975;DHT22;18500;43.618;1.474;2023-07-09T15:36:10;31.50;99.90
31975;DHT22;18500;43.618;1.474;2023-07-09T15:38:36;31.80;99.90
31975;DHT22;18500;43.618;1.474;2023-07-09T15:41:06;32.00;99.90
31975;DHT22;18500;43.618;1.474;2023-07-09T15:43:32;32.30;99.90
31975;DHT22;18500;43.618;1.474;2023-07-09T15:45:58;32.10;99.90
31975;DHT22;18500;43.618;1.474;2023-07-09T15:48:32;31.70;99.90
31975;DHT22;18500;43.618;1.474;2023-07-09T15:50:59;31.50;99.90
31975;DHT22;18500;43.618;1.474;2023-07-09T15:53:25;31.60;99.90
31975;DHT22;18500;43.618;1.474;2023-07-09T15:55:52;31.60;99.90
31975;DHT22;18500;43.618;1.474;2023-07-09T15:58:21;31.40;99.90
31975;DHT22;18500;43.618;1.474;2023-07-09T16:00:49;31.50;99.90
31975;DHT22;18500;43.618;1.474;2023-07-09T16:03:15;31.60;99.90
31975;DHT22;18500;43.618;1.474;2023-07-09T16:05:40;31.70;99.90
31975;DHT22;18500;43.618;1.474;2023-07-09T16:08:06;31.70;99.90
31975;DHT22;18500;43.618;1.474;2023-07-09T16:10:33;31.70;99.90
31975;DHT22;18500;43.618;1.474;2023-07-09T16:12:58;31.40;99.90
31975;DHT22;18500;43.618;1.474;2023-07-09T16:15:24;31.40;1.00
31975;DHT22;18500;43.618;1.474;2023-07-09T16:17:50;31.40;99.90
31975;DHT22;18500;43.618;1.474;2023-07-09T16:20:23;31.50;99.90
31975;DHT22;18500;43.618;1.474;2023-07-09T16:22:52;31.30;99.90
31975;DHT22;18500;43.618;1.474;2023-07-09T16:25:26;31.00;1.00
31975;DHT22;18500;43.618;1.474;2023-07-09T16:27:52;31.10;99.90
31975;DHT22;18500;43.618;1.474;2023-07-09T16:30:19;31.20;99.90
31975;DHT22;18500;43.618;1.474;2023-07-09T16:32:45;31.30;99.90
31975;DHT22;18500;43.618;1.474;2023-07-09T16:35:11;31.30;99.90
31975;DHT22;18500;43.618;1.474;2023-07-09T16:37:37;31.20;99.90
31975;DHT22;18500;43.618;1.474;2023-07-09T16:40:03;31.10;99.90
31975;DHT22;18500;43.618;1.474;2023-07-09T16:42:29;30.80;1.00
31975;DHT22;18500;43.618;1.474;2023-07-09T16:44:55;30.80;99.90
31975;DHT22;18500;43.618;1.474;2023-07-09T16:47:20;30.90;1.00
31975;DHT22;18500;43.618;1.474;2023-07-09T16:49:46;30.90;1.00
31975;DHT22;18500;43.618;1.474;2023-07-09T16:52:16;30.90;1.00
31975;DHT22;18500;43.618;1.474;2023-07-09T16:54:42;30.60;1.00
31975;DHT22;18500;43.618;1.474;2023-07-09T16:57:18;30.70;1.00
31975;DHT22;18500;43.618;1.474;2023-07-09T16:59:45;30.60;1.00
31975;DHT22;18500;43.618;1.474;2023-07-09T17:02:27;30.50;1.00
31975;DHT22;18500;43.618;1.474;2023-07-09T17:04:53;30.40;1.00
31975;DHT22;18500;43.618;1.474;2023-07-09T17:07:19;30.30;1.00
31975;DHT22;18500;43.618;1.474;2023-07-09T17:09:44;30.30;1.00
31975;DHT22;18500;43.618;1.474;2023-07-09T17:12:10;30.20;1.00
31975;DHT22;18500;43.618;1.474;2023-07-09T17:14:37;30.20;1.00
31975;DHT22;18500;43.618;1.474;2023-07-09T17:17:02;30.10;1.00
31975;DHT22;18500;43.618;1.474;2023-07-09T17:19:28;30.00;1.00
31975;DHT22;18500;43.618;1.474;2023-07-09T17:21:54;30.00;1.00
31975;DHT22;18500;43.618;1.474;2023-07-09T17:24:22;29.90;1.00
31975;DHT22;18500;43.618;1.474;2023-07-09T17:26:49;29.80;1.00
31975;DHT22;18500;43.618;1.474;2023-07-09T17:29:15;29.80;1.00
31975;DHT22;18500;43.618;1.474;2023-07-09T17:31:49;29.70;1.00
31975;DHT22;18500;43.618;1.474;2023-07-09T17:34:15;29.80;1.00
31975;DHT22;18500;43.618;1.474;2023-07-09T17:36:42;29.70;1.00
31975;DHT22;18500;43.618;1.474;2023-07-09T17:41:43;29.70;1.00
31975;DHT22;18500;43.618;1.474;2023-07-09T17:44:12;29.70;1.00
31975;DHT22;18500;43.618;1.474;2023-07-09T17:46:38;29.60;1.00
31975;DHT22;18500;43.618;1.474;2023-07-09T17:49:08;29.50;1.00
31975;DHT22;18500;43.618;1.474;2023-07-09T17:51:33;29.40;1.00
31975;DHT22;18500;43.618;1.474;2023-07-09T17:53:59;29.30;1.00
31975;DHT22;18500;43.618;1.474;2023-07-09T17:56:24;29.40;1.00
31975;DHT22;18500;43.618;1.474;2023-07-09T17:58:54;29.40;1.00
31975;DHT22;18500;43.618;1.474;2023-07-09T18:01:20;29.30;1.00
31975;DHT22;18500;43.618;1.474;2023-07-09T18:03:45;29.30;1.00
31975;DHT22;18500;43.618;1.474;2023-07-09T18:06:14;29.30;1.00
31975;DHT22;18500;43.618;1.474;2023-07-09T18:08:40;29.20;1.00
31975;DHT22;18500;43.618;1.474;2023-07-09T18:11:09;29.30;1.00
31975;DHT22;18500;43.618;1.474;2023-07-09T18:13:38;29.10;1.00
31975;DHT22;18500;43.618;1.474;2023-07-09T18:16:04;29.10;1.00
31975;DHT22;18500;43.618;1.474;2023-07-09T18:18:29;29.10;1.00
31975;DHT22;18500;43.618;1.474;2023-07-09T18:20:55;29.10;1.00
31975;DHT22;18500;43.618;1.474;2023-07-09T18:23:20;29.10;1.00
31975;DHT22;18500;43.618;1.474;2023-07-09T18:25:47;29.10;1.00
31975;DHT22;18500;43.618;1.474;2023-07-09T18:28:19;29.00;1.00
31975;DHT22;18500;43.618;1.474;2023-07-09T18:30:46;29.00;1.00
31975;DHT22;18500;43.618;1.474;2023-07-09T18:33:12;28.90;1.00
31975;DHT22;18500;43.618;1.474;2023-07-09T18:35:37;28.90;1.00
31975;DHT22;18500;43.618;1.474;2023-07-09T18:38:04;29.00;1.00
31975;DHT22;18500;43.618;1.474;2023-07-09T18:40:31;29.00;1.00
31975;DHT22;18500;43.618;1.474;2023-07-09T18:42:58;28.90;1.00
31975;DHT22;18500;43.618;1.474;2023-07-09T18:45:25;28.90;1.00
31975;DHT22;18500;43.618;1.474;2023-07-09T18:47:53;28.80;1.00
31975;DHT22;18500;43.618;1.474;2023-07-09T18:50:26;28.80;1.00
31975;DHT22;18500;43.618;1.474;2023-07-09T18:52:52;28.70;1.00
31975;DHT22;18500;43.618;1.474;2023-07-09T18:55:20;28.80;1.00
31975;DHT22;18500;43.618;1.474;2023-07-09T18:57:45;28.70;1.00
31975;DHT22;18500;43.618;1.474;2023-07-09T19:00:11;28.70;1.00
31975;DHT22;18500;43.618;1.474;2023-07-09T19:02:38;28.60;1.00
31975;DHT22;18500;43.618;1.474;2023-07-09T19:05:05;28.60;1.00
31975;DHT22;18500;43.618;1.474;2023-07-09T19:07:35;28.50;1.00
31975;DHT22;18500;43.618;1.474;2023-07-09T19:10:01;28.50;1.00
31975;DHT22;18500;43.618;1.474;2023-07-09T19:12:26;28.50;1.00
31975;DHT22;18500;43.618;1.474;2023-07-09T19:14:52;28.40;1.00
31975;DHT22;18500;43.618;1.474;2023-07-09T19:17:17;28.40;1.00
31975;DHT22;18500;43.618;1.474;2023-07-09T19:19:45;28.30;1.00
31975;DHT22;18500;43.618;1.474;2023-07-09T19:22:14;28.30;1.00
31975;DHT22;18500;43.618;1.474;2023-07-09T19:24:39;28.20;1.00
31975;DHT22;18500;43.618;1.474;2023-07-09T19:27:07;28.20;1.00
31975;DHT22;18500;43.618;1.474;2023-07-09T19:29:32;28.10;1.00
31975;DHT22;18500;43.618;1.474;2023-07-09T19:31:59;28.10;1.00
31975;DHT22;18500;43.618;1.474;2023-07-09T19:34:30;28.10;1.00
31975;DHT22;18500;43.618;1.474;2023-07-09T19:36:57;28.00;1.00
31975;DHT22;18500;43.618;1.474;2023-07-09T19:41:50;27.90;1.00
31975;DHT22;18500;43.618;1.474;2023-07-09T19:44:15;27.90;1.00
31975;DHT22;18500;43.618;1.474;2023-07-09T19:46:41;27.80;1.00
31975;DHT22;18500;43.618;1.474;2023-07-09T19:49:10;27.80;1.00
31975;DHT22;18500;43.618;1.474;2023-07-09T19:51:36;27.80;1.00
31975;DHT22;18500;43.618;1.474;2023-07-09T19:54:09;27.70;1.00
31975;DHT22;18500;43.618;1.474;2023-07-09T19:56:35;27.70;1.00
31975;DHT22;18500;43.618;1.474;2023-07-09T19:59:00;27.70;1.00
31975;DHT22;18500;43.618;1.474;2023-07-09T20:01:26;27.70;1.00
31975;DHT22;18500;43.618;1.474;2023-07-09T20:03:51;27.60;1.00
31975;DHT22;18500;43.618;1.474;2023-07-09T20:06:17;27.60;1.00
31975;DHT22;18500;43.618;1.474;2023-07-09T20:08:42;27.50;1.00
31975;DHT22;18500;43.618;1.474;2023-07-09T20:11:11;27.50;1.00
31975;DHT22;18500;43.618;1.474;2023-07-09T20:13:38;27.40;1.00
31975;DHT22;18500;43.618;1.474;2023-07-09T20:16:03;27.40;1.00
31975;DHT22;18500;43.618;1.474;2023-07-09T20:18:29;27.40;1.00
31975;DHT22;18500;43.618;1.474;2023-07-09T20:20:56;27.40;1.00
31975;DHT22;18500;43.618;1.474;2023-07-09T20:23:22;27.30;1.00
31975;DHT22;18500;43.618;1.474;2023-07-09T20:25:48;27.30;1.00
31975;DHT22;18500;43.618;1.474;2023-07-09T20:28:16;27.30;1.00
31975;DHT22;18500;43.618;1.474;2023-07-09T20:30:42;27.30;1.00
31975;DHT22;18500;43.618;1.474;2023-07-09T20:33:09;27.30;1.00
31975;DHT22;18500;43.618;1.474;2023-07-09T20:35:35;27.20;1.00
31975;DHT22;18500;43.618;1.474;2023-07-09T20:38:00;27.20;1.00
31975;DHT22;18500;43.618;1.474;2023-07-09T20:40:26;27.20;1.00
31975;DHT22;18500;43.618;1.474;2023-07-09T20:42:54;27.20;1.00
31975;DHT22;18500;43.618;1.474;2023-07-09T20:45:22;27.20;1.00
31975;DHT22;18500;43.618;1.474;2023-07-09T20:47:48;27.10;1.00
31975;DHT22;18500;43.618;1.474;2023-07-09T20:50:15;27.00;1.00
31975;DHT22;18500;43.618;1.474;2023-07-09T20:52:40;27.00;1.00
31975;DHT22;18500;43.618;1.474;2023-07-09T20:55:08;27.00;1.00
31975;DHT22;18500;43.618;1.474;2023-07-09T20:57:34;26.90;1.00
31975;DHT22;18500;43.618;1.474;2023-07-09T21:00:00;26.90;1.00
31975;DHT22;18500;43.618;1.474;2023-07-09T21:02:26;26.80;1.00
31975;DHT22;18500;43.618;1.474;2023-07-09T21:04:54;26.80;1.00
31975;DHT22;18500;43.618;1.474;2023-07-09T21:07:20;26.80;1.00
31975;DHT22;18500;43.618;1.474;2023-07-09T21:09:46;26.80;1.00
31975;DHT22;18500;43.618;1.474;2023-07-09T21:12:13;26.70;1.00
31975;DHT22;18500;43.618;1.474;2023-07-09T21:14:39;26.70;1.00
31975;DHT22;18500;43.618;1.474;2023-07-09T21:17:05;26.60;1.00
31975;DHT22;18500;43.618;1.474;2023-07-09T21:19:31;26.60;1.00
31975;DHT22;18500;43.618;1.474;2023-07-09T21:21:57;26.60;1.00
31975;DHT22;18500;43.618;1.474;2023-07-09T21:24:30;26.60;1.00
31975;DHT22;18500;43.618;1.474;2023-07-09T21:26:56;26.50;1.00
31975;DHT22;18500;43.618;1.474;2023-07-09T21:29:22;26.40;1.00
31975;DHT22;18500;43.618;1.474;2023-07-09T21:31:48;26.30;1.00
31975;DHT22;18500;43.618;1.474;2023-07-09T21:34:15;26.30;1.00
31975;DHT22;18500;43.618;1.474;2023-07-09T21:36:41;26.20;1.00
31975;DHT22;18500;43.618;1.474;2023-07-09T21:39:13;26.20;1.00
31975;DHT22;18500;43.618;1.474;2023-07-09T21:41:38;26.20;1.00
31975;DHT22;18500;43.618;1.474;2023-07-09T21:44:04;26.10;1.00
31975;DHT22;18500;43.618;1.474;2023-07-09T21:46:29;26.10;1.00
31975;DHT22;18500;43.618;1.474;2023-07-09T21:48:55;26.00;1.00
31975;DHT22;18500;43.618;1.474;2023-07-09T21:51:21;26.00;1.00
31975;DHT22;18500;43.618;1.474;2023-07-09T21:53:46;25.90;1.00
31975;DHT22;18500;43.618;1.474;2023-07-09T21:56:12;25.80;1.00
31975;DHT22;18500;43.618;1.474;2023-07-09T21:58:38;25.80;1.00
31975;DHT22;18500;43.618;1.474;2023-07-09T22:01:04;25.80;1.00
31975;DHT22;18500;43.618;1.474;2023-07-09T22:03:33;25.80;1.00
31975;DHT22;18500;43.618;1.474;2023-07-09T22:05:58;25.80;1.00
31975;DHT22;18500;43.618;1.474;2023-07-09T22:08:24;25.70;1.00
31975;DHT22;18500;43.618;1.474;2023-07-09T22:10:50;25.60;1.00
31975;DHT22;18500;43.618;1.474;2023-07-09T22:13:17;25.60;1.00
31975;DHT22;18500;43.618;1.474;2023-07-09T22:15:43;25.60;1.00
31975;DHT22;18500;43.618;1.474;2023-07-09T22:18:13;25.50;1.00
31975;DHT22;18500;43.618;1.474;2023-07-09T22:20:39;25.50;1.00
31975;DHT22;18500;43.618;1.474;2023-07-09T22:23:05;25.50;1.00
31975;DHT22;18500;43.618;1.474;2023-07-09T22:25:31;25.50;1.00
31975;DHT22;18500;43.618;1.474;2023-07-09T22:27:57;25.50;1.00
31975;DHT22;18500;43.618;1.474;2023-07-09T22:30:23;25.50;1.00
31975;DHT22;18500;43.618;1.474;2023-07-09T22:32:51;25.40;1.00
31975;DHT22;18500;43.618;1.474;2023-07-09T22:35:17;25.40;1.00
31975;DHT22;18500;43.618;1.474;2023-07-09T22:37:43;25.40;1.00
31975;DHT22;18500;43.618;1.474;2023-07-09T22:40:20;25.30;1.00
31975;DHT22;18500;43.618;1.474;2023-07-09T22:42:47;25.30;1.00
31975;DHT22;18500;43.618;1.474;2023-07-09T22:45:13;25.20;1.00
31975;DHT22;18500;43.618;1.474;2023-07-09T22:47:38;25.30;1.00
31975;DHT22;18500;43.618;1.474;2023-07-09T22:50:08;25.20;1.00
31975;DHT22;18500;43.618;1.474;2023-07-09T22:52:36;25.20;1.00
31975;DHT22;18500;43.618;1.474;2023-07-09T22:55:12;25.10;1.00
31975;DHT22;18500;43.618;1.474;2023-07-09T22:57:38;25.10;1.00
31975;DHT22;18500;43.618;1.474;2023-07-09T23:00:04;25.10;1.00
31975;DHT22;18500;43.618;1.474;2023-07-09T23:02:29;25.10;1.00
31975;DHT22;18500;43.618;1.474;2023-07-09T23:04:55;25.10;1.00
31975;DHT22;18500;43.618;1.474;2023-07-09T23:07:20;25.10;1.00
31975;DHT22;18500;43.618;1.474;2023-07-09T23:09:46;25.00;1.00
31975;DHT22;18500;43.618;1.474;2023-07-09T23:12:12;25.00;1.00
31975;DHT22;18500;43.618;1.474;2023-07-09T23:14:38;25.00;1.00
31975;DHT22;18500;43.618;1.474;2023-07-09T23:17:04;25.00;1.00
31975;DHT22;18500;43.618;1.474;2023-07-09T23:19:37;24.90;1.00
31975;DHT22;18500;43.618;1.474;2023-07-09T23:22:02;25.00;1.00
31975;DHT22;18500;43.618;1.474;2023-07-09T23:24:28;24.90;1.00
31975;DHT22;18500;43.618;1.474;2023-07-09T23:26:54;24.90;1.00
31975;DHT22;18500;43.618;1.474;2023-07-09T23:29:20;24.80;1.00
31975;DHT22;18500;43.618;1.474;2023-07-09T23:31:46;24.70;1.00
31975;DHT22;18500;43.618;1.474;2023-07-09T23:34:13;24.60;1.00
31975;DHT22;18500;43.618;1.474;2023-07-09T23:36:38;24.50;1.00
31975;DHT22;18500;43.618;1.474;2023-07-09T23:39:06;24.50;1.00
31975;DHT22;18500;43.618;1.474;2023-07-09T23:41:33;24.50;1.00
31975;DHT22;18500;43.618;1.474;2023-07-09T23:43:59;24.40;1.00
31975;DHT22;18500;43.618;1.474;2023-07-09T23:46:27;24.40;1.00
31975;DHT22;18500;43.618;1.474;2023-07-09T23:48:54;24.40;1.00
31975;DHT22;18500;43.618;1.474;2023-07-09T23:51:20;24.30;1.00
31975;DHT22;18500;43.618;1.474;2023-07-09T23:53:45;24.20;1.00
31975;DHT22;18500;43.618;1.474;2023-07-09T23:56:32;24.20;1.00